sensor_id;sensor_type;location;lat;lon;timestamp;temperature;humidity
10419;DHT22;5256;48.728;9.140;2022-10-26T00:01:27;10.80;99.90
10419;DHT22;5256;48.728;9.140;2022-10-26T00:03:55;10.80;99.90
10419;DHT22;5256;48.728;9.140;2022-10-26T00:06:23;10.80;99.90
10419;DHT22;5256;48.728;9.140;2022-10-26T00:08:55;10.80;99.90
10419;DHT22;5256;48.728;9.140;2022-10-26T00:11:21;10.70;99.90
10419;DHT22;5256;48.728;9.140;2022-10-26T00:13:47;10.70;99.90
10419;DHT22;5256;48.728;9.140;2022-10-26T00:16:16;10.60;99.90
10419;DHT22;5256;48.728;9.140;2022-10-26T00:18:42;10.70;99.90
10419;DHT22;5256;48.728;9.140;2022-10-26T00:21:09;10.60;99.90
10419;DHT22;5256;48.728;9.140;2022-10-26T00:23:35;10.70;99.90
10419;DHT22;5256;48.728;9.140;2022-10-26T00:26:02;10.70;99.90
10419;DHT22;5256;48.728;9.140;2022-10-26T00:28:28;10.70;99.90
10419;DHT22;5256;48.728;9.140;2022-10-26T00:30:54;10.80;99.90
10419;DHT22;5256;48.728;9.140;2022-10-26T00:33:19;10.80;99.90
10419;DHT22;5256;48.728;9.140;2022-10-26T00:35:52;10.80;99.90
10419;DHT22;5256;48.728;9.140;2022-10-26T00:38:18;10.80;99.90
10419;DHT22;5256;48.728;9.140;2022-10-26T00:40:44;10.80;99.90
10419;DHT22;5256;48.728;9.140;2022-10-26T00:43:15;10.90;99.90
10419;DHT22;5256;48.728;9.140;2022-10-26T00:45:41;10.90;99.90
10419;DHT22;5256;48.728;9.140;2022-10-26T00:48:14;10.90;99.90
10419;DHT22;5256;48.728;9.140;2022-10-26T00:50:45;11.00;99.90
10419;DHT22;5256;48.728;9.140;2022-10-26T00:53:12;11.20;99.90
10419;DHT22;5256;48.728;9.140;2022-10-26T00:55:42;11.20;99.90
10419;DHT22;5256;48.728;9.140;2022-10-26T00:58:09;11.20;99.90
10419;DHT22;5256;48.728;9.140;2022-10-26T01:00:35;11.20;99.90
10419;DHT22;5256;48.728;9.140;2022-10-26T01:03:06;11.10;99.90
10419;DHT22;5256;48.728;9.140;2022-10-26T01:05:33;11.10;99.90
10419;DHT22;5256;48.728;9.140;2022-10-26T01:08:01;11.10;99.90
10419;DHT22;5256;48.728;9.140;2022-10-26T01:10:27;11.10;99.90
10419;DHT22;5256;48.728;9.140;2022-10-26T01:12:54;11.10;99.90
10419;DHT22;5256;48.728;9.140;2022-10-26T01:15:23;11.10;99.90
10419;DHT22;5256;48.728;9.140;2022-10-26T01:18:11;11.10;99.90
10419;DHT22;5256;48.728;9.140;2022-10-26T01:23:21;11.10;99.90
10419;DHT22;5256;48.728;9.140;2022-10-26T01:29:38;11.10;99.90
10419;DHT22;5256;48.728;9.140;2022-10-26T01:32:08;11.10;99.90
10419;DHT22;5256;48.728;9.140;2022-10-26T01:34:54;11.10;99.90
10419;DHT22;5256;48.728;9.140;2022-10-26T01:37:25;11.10;99.90
10419;DHT22;5256;48.728;9.140;2022-10-26T01:40:00;11.20;99.90
10419;DHT22;5256;48.728;9.140;2022-10-26T01:42:27;11.30;99.90
10419;DHT22;5256;48.728;9.140;2022-10-26T01:45:06;11.40;99.90
10419;DHT22;5256;48.728;9.140;2022-10-26T01:47:33;11.50;99.90
10419;DHT22;5256;48.728;9.140;2022-10-26T01:50:02;11.40;99.90
10419;DHT22;5256;48.728;9.140;2022-10-26T01:52:28;11.40;99.90
10419;DHT22;5256;48.728;9.140;2022-10-26T01:55:06;11.40;99.90
10419;DHT22;5256;48.728;9.140;2022-10-26T01:57:50;11.50;99.90
10419;DHT22;5256;48.728;9.140;2022-10-26T02:00:17;11.50;99.90
10419;DHT22;5256;48.728;9.140;2022-10-26T02:08:25;11.30;99.90
10419;DHT22;5256;48.728;9.140;2022-10-26T02:11:31;11.30;99.90
10419;DHT22;5256;48.728;9.140;2022-10-26T02:17:09;11.20;99.90
10419;DHT22;5256;48.728;9.140;2022-10-26T02:19:47;11.20;99.90
10419;DHT22;5256;48.728;9.140;2022-10-26T02:22:40;11.20;99.90
10419;DHT22;5256;48.728;9.140;2022-10-26T02:25:08;11.30;99.90
10419;DHT22;5256;48.728;9.140;2022-10-26T02:27:39;11.20;99.90
10419;DHT22;5256;48.728;9.140;2022-10-26T02:30:07;11.30;99.90
10419;DHT22;5256;48.728;9.140;2022-10-26T02:32:35;11.20;99.90
10419;DHT22;5256;48.728;9.140;2022-10-26T02:35:02;11.30;99.90
10419;DHT22;5256;48.728;9.140;2022-10-26T02:37:29;11.30;99.90
10419;DHT22;5256;48.728;9.140;2022-10-26T02:39:57;11.30;99.90
10419;DHT22;5256;48.728;9.140;2022-10-26T02:42:26;11.20;99.90
10419;DHT22;5256;48.728;9.140;2022-10-26T02:44:58;11.10;99.90
10419;DHT22;5256;48.728;9.140;2022-10-26T02:47:24;11.10;99.90
10419;DHT22;5256;48.728;9.140;2022-10-26T02:49:51;11.10;99.90
10419;DHT22;5256;48.728;9.140;2022-10-26T02:52:47;11.10;99.90
10419;DHT22;5256;48.728;9.140;2022-10-26T02:55:26;11.00;99.90
10419;DHT22;5256;48.728;9.140;2022-10-26T02:57:56;11.00;99.90
10419;DHT22;5256;48.728;9.140;2022-10-26T03:00:23;11.00;99.90
10419;DHT22;5256;48.728;9.140;2022-10-26T03:02:55;11.00;99.90
10419;DHT22;5256;48.728;9.140;2022-10-26T03:05:26;11.10;99.90
10419;DHT22;5256;48.728;9.140;2022-10-26T03:07:52;11.10;99.90
10419;DHT22;5256;48.728;9.140;2022-10-26T03:10:18;11.20;99.90
10419;DHT22;5256;48.728;9.140;2022-10-26T03:12:44;11.20;99.90
10419;DHT22;5256;48.728;9.140;2022-10-26T03:15:10;11.20;99.90
10419;DHT22;5256;48.728;9.140;2022-10-26T03:17:35;11.30;99.90
10419;DHT22;5256;48.728;9.140;2022-10-26T03:20:01;11.30;99.90
10419;DHT22;5256;48.728;9.140;2022-10-26T03:22:27;11.30;99.90
10419;DHT22;5256;48.728;9.140;2022-10-26T03:24:52;11.40;99.90
10419;DHT22;5256;48.728;9.140;2022-10-26T03:27:18;11.40;99.90
10419;DHT22;5256;48.728;9.140;2022-10-26T03:29:43;11.40;99.90
10419;DHT22;5256;48.728;9.140;2022-10-26T03:32:09;11.50;99.90
10419;DHT22;5256;48.728;9.140;2022-10-26T03:34:34;11.60;99.90
10419;DHT22;5256;48.728;9.140;2022-10-26T03:37:00;11.80;99.90
10419;DHT22;5256;48.728;9.140;2022-10-26T03:39:26;12.00;99.90
10419;DHT22;5256;48.728;9.140;2022-10-26T03:41:51;12.10;99.90
10419;DHT22;5256;48.728;9.140;2022-10-26T03:44:17;12.10;99.90
10419;DHT22;5256;48.728;9.140;2022-10-26T03:46:42;12.20;99.90
10419;DHT22;5256;48.728;9.140;2022-10-26T03:49:08;12.20;99.90
10419;DHT22;5256;48.728;9.140;2022-10-26T03:51:33;12.30;99.90
10419;DHT22;5256;48.728;9.140;2022-10-26T03:53:59;12.20;99.90
10419;DHT22;5256;48.728;9.140;2022-10-26T03:56:24;12.30;99.90
10419;DHT22;5256;48.728;9.140;2022-10-26T03:58:50;12.30;99.90
10419;DHT22;5256;48.728;9.140;2022-10-26T04:01:16;12.40;99.90
10419;DHT22;5256;48.728;9.140;2022-10-26T04:03:41;12.40;99.90
10419;DHT22;5256;48.728;9.140;2022-10-26T04:06:07;12.40;99.90
10419;DHT22;5256;48.728;9.140;2022-10-26T04:08:32;12.40;99.90
10419;DHT22;5256;48.728;9.140;2022-10-26T04:10:58;12.30;99.90
10419;DHT22;5256;48.728;9.140;2022-10-26T04:13:23;12.30;99.90
10419;DHT22;5256;48.728;9.140;2022-10-26T04:15:49;12.20;99.90
10419;DHT22;5256;48.728;9.140;2022-10-26T04:18:15;12.30;99.90
10419;DHT22;5256;48.728;9.140;2022-10-26T04:20:41;12.30;99.90
10419;DHT22;5256;48.728;9.140;2022-10-26T04:23:10;12.20;99.90
10419;DHT22;5256;48.728;9.140;2022-10-26T04:25:36;12.20;99.90
10419;DHT22;5256;48.728;9.140;2022-10-26T04:28:03;12.10;99.90
10419;DHT22;5256;48.728;9.140;2022-10-26T04:30:30;12.10;99.90
10419;DHT22;5256;48.728;9.140;2022-10-26T04:32:55;12.10;99.90
10419;DHT22;5256;48.728;9.140;2022-10-26T04:35:24;12.10;99.90
10419;DHT22;5256;48.728;9.140;2022-10-26T04:37:50;12.10;99.90
10419;DHT22;5256;48.728;9.140;2022-10-26T04:40:15;12.00;99.90
10419;DHT22;5256;48.728;9.140;2022-10-26T04:42:45;11.90;99.90
10419;DHT22;5256;48.728;9.140;2022-10-26T04:45:12;11.90;99.90
10419;DHT22;5256;48.728;9.140;2022-10-26T04:47:38;11.90;99.90
10419;DHT22;5256;48.728;9.140;2022-10-26T04:50:05;11.80;99.90
10419;DHT22;5256;48.728;9.140;2022-10-26T04:52:30;11.70;99.90
10419;DHT22;5256;48.728;9.140;2022-10-26T04:54:56;11.70;99.90
10419;DHT22;5256;48.728;9.140;2022-10-26T04:57:22;11.70;99.90
10419;DHT22;5256;48.728;9.140;2022-10-26T04:59:47;11.70;99.90
10419;DHT22;5256;48.728;9.140;2022-10-26T05:02:13;11.60;99.90
10419;DHT22;5256;48.728;9.140;2022-10-26T05:04:38;11.60;99.90
10419;DHT22;5256;48.728;9.140;2022-10-26T05:07:04;11.70;99.90
10419;DHT22;5256;48.728;9.140;2022-10-26T05:09:29;11.60;99.90
10419;DHT22;5256;48.728;9.140;2022-10-26T05:11:55;11.60;99.90
10419;DHT22;5256;48.728;9.140;2022-10-26T05:14:21;11.70;99.90
10419;DHT22;5256;48.728;9.140;2022-10-26T05:16:46;11.70;99.90
10419;DHT22;5256;48.728;9.140;2022-10-26T05:19:12;11.70;99.90
10419;DHT22;5256;48.728;9.140;2022-10-26T05:21:37;11.60;99.90
10419;DHT22;5256;48.728;9.140;2022-10-26T05:24:03;11.70;99.90
10419;DHT22;5256;48.728;9.140;2022-10-26T05:26:29;11.70;99.90
10419;DHT22;5256;48.728;9.140;2022-10-26T05:28:54;11.70;99.90
10419;DHT22;5256;48.728;9.140;2022-10-26T05:31:20;11.70;99.90
10419;DHT22;5256;48.728;9.140;2022-10-26T05:33:50;11.70;99.90
10419;DHT22;5256;48.728;9.140;2022-10-26T05:36:18;11.70;99.90
10419;DHT22;5256;48.728;9.140;2022-10-26T05:38:45;11.80;99.90
10419;DHT22;5256;48.728;9.140;2022-10-26T05:41:10;12.00;99.90
10419;DHT22;5256;48.728;9.140;2022-10-26T05:43:36;12.10;99.90
10419;DHT22;5256;48.728;9.140;2022-10-26T05:46:02;12.20;99.90
10419;DHT22;5256;48.728;9.140;2022-10-26T05:48:27;12.30;99.90
10419;DHT22;5256;48.728;9.140;2022-10-26T05:50:53;12.30;99.90
10419;DHT22;5256;48.728;9.140;2022-10-26T05:53:18;12.40;99.90
10419;DHT22;5256;48.728;9.140;2022-10-26T05:55:44;12.40;99.90
10419;DHT22;5256;48.728;9.140;2022-10-26T05:58:12;12.50;99.90
10419;DHT22;5256;48.728;9.140;2022-10-26T06:00:55;12.60;99.90
10419;DHT22;5256;48.728;9.140;2022-10-26T06:03:45;12.60;99.90
10419;DHT22;5256;48.728;9.140;2022-10-26T06:06:14;12.70;99.90
10419;DHT22;5256;48.728;9.140;2022-10-26T06:08:43;12.70;99.90
10419;DHT22;5256;48.728;9.140;2022-10-26T06:11:09;12.70;99.90
10419;DHT22;5256;48.728;9.140;2022-10-26T06:13:35;12.80;99.90
10419;DHT22;5256;48.728;9.140;2022-10-26T06:19:26;12.80;99.90
10419;DHT22;5256;48.728;9.140;2022-10-26T06:30:05;13.40;99.90
10419;DHT22;5256;48.728;9.140;2022-10-26T06:32:32;13.60;99.90
10419;DHT22;5256;48.728;9.140;2022-10-26T06:35:14;13.60;99.90
10419;DHT22;5256;48.728;9.140;2022-10-26T06:37:44;13.60;99.90
10419;DHT22;5256;48.728;9.140;2022-10-26T06:40:12;13.60;99.90
10419;DHT22;5256;48.728;9.140;2022-10-26T06:42:39;13.60;99.90
10419;DHT22;5256;48.728;9.140;2022-10-26T06:45:05;13.60;99.90
10419;DHT22;5256;48.728;9.140;2022-10-26T06:47:45;13.50;99.90
10419;DHT22;5256;48.728;9.140;2022-10-26T06:50:28;13.50;99.90
10419;DHT22;5256;48.728;9.140;2022-10-26T06:53:20;13.60;99.90
10419;DHT22;5256;48.728;9.140;2022-10-26T06:55:50;13.60;99.90
10419;DHT22;5256;48.728;9.140;2022-10-26T06:58:21;13.70;99.90
10419;DHT22;5256;48.728;9.140;2022-10-26T07:00:49;13.80;99.90
10419;DHT22;5256;48.728;9.140;2022-10-26T07:03:15;13.90;99.90
10419;DHT22;5256;48.728;9.140;2022-10-26T07:05:42;13.90;99.90
10419;DHT22;5256;48.728;9.140;2022-10-26T07:08:08;14.00;99.90
10419;DHT22;5256;48.728;9.140;2022-10-26T07:10:33;14.10;99.90
10419;DHT22;5256;48.728;9.140;2022-10-26T07:13:06;14.10;99.90
10419;DHT22;5256;48.728;9.140;2022-10-26T07:15:35;14.10;99.90
10419;DHT22;5256;48.728;9.140;2022-10-26T07:18:03;14.10;99.90
10419;DHT22;5256;48.728;9.140;2022-10-26T07:20:31;14.20;99.90
10419;DHT22;5256;48.728;9.140;2022-10-26T07:22:57;14.20;99.90
10419;DHT22;5256;48.728;9.140;2022-10-26T07:25:24;14.30;99.90
10419;DHT22;5256;48.728;9.140;2022-10-26T07:27:50;14.40;99.90
10419;DHT22;5256;48.728;9.140;2022-10-26T07:30:16;14.40;99.90
10419;DHT22;5256;48.728;9.140;2022-10-26T07:32:42;14.40;99.90
10419;DHT22;5256;48.728;9.140;2022-10-26T07:35:08;14.40;99.90
10419;DHT22;5256;48.728;9.140;2022-10-26T07:37:34;14.50;99.90
10419;DHT22;5256;48.728;9.140;2022-10-26T07:39:59;14.50;99.90
10419;DHT22;5256;48.728;9.140;2022-10-26T07:42:26;14.50;99.90
10419;DHT22;5256;48.728;9.140;2022-10-26T07:44:51;14.50;99.90
10419;DHT22;5256;48.728;9.140;2022-10-26T07:47:17;14.50;99.90
10419;DHT22;5256;48.728;9.140;2022-10-26T07:49:42;14.50;99.90
10419;DHT22;5256;48.728;9.140;2022-10-26T07:52:09;14.50;99.90
10419;DHT22;5256;48.728;9.140;2022-10-26T07:54:35;14.50;99.90
10419;DHT22;5256;48.728;9.140;2022-10-26T07:57:00;14.60;99.90
10419;DHT22;5256;48.728;9.140;2022-10-26T07:59:26;14.60;99.90
10419;DHT22;5256;48.728;9.140;2022-10-26T08:01:52;14.60;99.90
10419;DHT22;5256;48.728;9.140;2022-10-26T08:04:17;14.60;99.90
10419;DHT22;5256;48.728;9.140;2022-10-26T08:06:43;14.70;99.90
10419;DHT22;5256;48.728;9.140;2022-10-26T08:09:08;14.70;99.90
10419;DHT22;5256;48.728;9.140;2022-10-26T08:11:34;14.70;99.90
10419;DHT22;5256;48.728;9.140;2022-10-26T08:14:02;14.70;99.90
10419;DHT22;5256;48.728;9.140;2022-10-26T08:16:28;14.80;99.90
10419;DHT22;5256;48.728;9.140;2022-10-26T08:18:53;14.80;99.90
10419;DHT22;5256;48.728;9.140;2022-10-26T08:21:19;14.80;99.90
10419;DHT22;5256;48.728;9.140;2022-10-26T08:23:44;14.90;99.90
10419;DHT22;5256;48.728;9.140;2022-10-26T08:26:10;14.90;99.90
10419;DHT22;5256;48.728;9.140;2022-10-26T08:28:36;15.00;99.90
10419;DHT22;5256;48.728;9.140;2022-10-26T08:31:02;15.00;99.90
10419;DHT22;5256;48.728;9.140;2022-10-26T08:33:28;15.00;99.90
10419;DHT22;5256;48.728;9.140;2022-10-26T08:35:55;15.10;99.90
10419;DHT22;5256;48.728;9.140;2022-10-26T08:38:21;15.10;99.90
10419;DHT22;5256;48.728;9.140;2022-10-26T08:40:47;15.10;99.90
10419;DHT22;5256;48.728;9.140;2022-10-26T08:43:17;15.20;99.90
10419;DHT22;5256;48.728;9.140;2022-10-26T08:46:12;15.20;99.90
10419;DHT22;5256;48.728;9.140;2022-10-26T08:48:46;15.20;99.90
10419;DHT22;5256;48.728;9.140;2022-10-26T08:51:20;15.30;99.90
10419;DHT22;5256;48.728;9.140;2022-10-26T08:54:00;15.30;99.90
10419;DHT22;5256;48.728;9.140;2022-10-26T08:56:43;15.30;99.90
10419;DHT22;5256;48.728;9.140;2022-10-26T08:59:18;15.40;99.90
10419;DHT22;5256;48.728;9.140;2022-10-26T09:01:49;15.50;99.90
10419;DHT22;5256;48.728;9.140;2022-10-26T09:04:15;15.60;99.90
10419;DHT22;5256;48.728;9.140;2022-10-26T09:09:26;15.70;99.90
10419;DHT22;5256;48.728;9.140;2022-10-26T09:23:48;16.00;99.90
10419;DHT22;5256;48.728;9.140;2022-10-26T09:28:51;16.20;99.90
10419;DHT22;5256;48.728;9.140;2022-10-26T09:31:17;16.40;99.90
10419;DHT22;5256;48.728;9.140;2022-10-26T09:33:42;16.40;99.90
10419;DHT22;5256;48.728;9.140;2022-10-26T09:36:17;16.50;99.90
10419;DHT22;5256;48.728;9.140;2022-10-26T09:41:36;16.70;99.90
10419;DHT22;5256;48.728;9.140;2022-10-26T09:44:18;16.80;99.90
10419;DHT22;5256;48.728;9.140;2022-10-26T09:46:54;16.90;99.90
10419;DHT22;5256;48.728;9.140;2022-10-26T09:49:46;17.10;99.90
10419;DHT22;5256;48.728;9.140;2022-10-26T09:52:13;17.50;99.90
10419;DHT22;5256;48.728;9.140;2022-10-26T09:54:39;17.80;99.90
10419;DHT22;5256;48.728;9.140;2022-10-26T09:57:05;18.10;99.90
10419;DHT22;5256;48.728;9.140;2022-10-26T09:59:35;18.40;99.90
10419;DHT22;5256;48.728;9.140;2022-10-26T10:02:34;18.60;99.90
10419;DHT22;5256;48.728;9.140;2022-10-26T10:05:00;18.90;99.90
10419;DHT22;5256;48.728;9.140;2022-10-26T10:07:26;19.00;99.90
10419;DHT22;5256;48.728;9.140;2022-10-26T10:10:06;19.00;99.90
10419;DHT22;5256;48.728;9.140;2022-10-26T10:12:32;18.90;99.90
10419;DHT22;5256;48.728;9.140;2022-10-26T10:14:58;18.70;99.90
10419;DHT22;5256;48.728;9.140;2022-10-26T10:17:24;18.40;99.90
10419;DHT22;5256;48.728;9.140;2022-10-26T10:19:51;18.20;99.90
10419;DHT22;5256;48.728;9.140;2022-10-26T10:22:24;18.10;99.90
10419;DHT22;5256;48.728;9.140;2022-10-26T10:24:58;18.20;99.90
10419;DHT22;5256;48.728;9.140;2022-10-26T10:27:24;18.40;99.90
10419;DHT22;5256;48.728;9.140;2022-10-26T10:29:52;18.50;99.90
10419;DHT22;5256;48.728;9.140;2022-10-26T10:32:28;18.60;99.90
10419;DHT22;5256;48.728;9.140;2022-10-26T10:34:57;18.80;99.90
10419;DHT22;5256;48.728;9.140;2022-10-26T10:37:33;18.80;99.90
10419;DHT22;5256;48.728;9.140;2022-10-26T10:40:16;18.90;99.90
10419;DHT22;5256;48.728;9.140;2022-10-26T10:42:44;18.90;99.90
10419;DHT22;5256;48.728;9.140;2022-10-26T10:45:20;19.00;99.90
10419;DHT22;5256;48.728;9.140;2022-10-26T10:50:24;18.90;99.90
10419;DHT22;5256;48.728;9.140;2022-10-26T10:52:50;19.10;99.90
10419;DHT22;5256;48.728;9.140;2022-10-26T10:55:19;19.20;99.90
10419;DHT22;5256;48.728;9.140;2022-10-26T11:00:34;19.50;99.90
10419;DHT22;5256;48.728;9.140;2022-10-26T11:03:35;19.60;99.90
10419;DHT22;5256;48.728;9.140;2022-10-26T11:06:22;19.80;99.90
10419;DHT22;5256;48.728;9.140;2022-10-26T11:08:59;19.80;99.90
10419;DHT22;5256;48.728;9.140;2022-10-26T11:11:49;19.70;99.90
10419;DHT22;5256;48.728;9.140;2022-10-26T11:14:24;19.70;99.90
10419;DHT22;5256;48.728;9.140;2022-10-26T11:17:03;19.70;99.90
10419;DHT22;5256;48.728;9.140;2022-10-26T11:22:10;19.90;99.90
10419;DHT22;5256;48.728;9.140;2022-10-26T11:24:46;20.00;99.90
10419;DHT22;5256;48.728;9.140;2022-10-26T11:30:19;19.90;99.90
10419;DHT22;5256;48.728;9.140;2022-10-26T11:33:18;20.00;99.90
10419;DHT22;5256;48.728;9.140;2022-10-26T11:35:55;20.10;99.90
10419;DHT22;5256;48.728;9.140;2022-10-26T11:38:28;20.10;99.90
10419;DHT22;5256;48.728;9.140;2022-10-26T11:41:17;20.20;99.90
10419;DHT22;5256;48.728;9.140;2022-10-26T11:44:02;20.20;99.90
10419;DHT22;5256;48.728;9.140;2022-10-26T11:46:35;20.20;99.90
10419;DHT22;5256;48.728;9.140;2022-10-26T11:49:16;20.30;99.90
10419;DHT22;5256;48.728;9.140;2022-10-26T11:54:41;20.60;99.90
10419;DHT22;5256;48.728;9.140;2022-10-26T11:57:10;20.40;99.90
10419;DHT22;5256;48.728;9.140;2022-10-26T11:59:42;20.30;99.90
10419;DHT22;5256;48.728;9.140;2022-10-26T12:02:19;20.20;99.90
10419;DHT22;5256;48.728;9.140;2022-10-26T12:04:53;20.10;99.90
10419;DHT22;5256;48.728;9.140;2022-10-26T12:07:31;20.20;99.90
10419;DHT22;5256;48.728;9.140;2022-10-26T12:09:58;20.30;99.90
10419;DHT22;5256;48.728;9.140;2022-10-26T12:12:43;20.20;99.90
10419;DHT22;5256;48.728;9.140;2022-10-26T12:15:18;20.10;99.90
10419;DHT22;5256;48.728;9.140;2022-10-26T12:18:01;20.00;99.90
10419;DHT22;5256;48.728;9.140;2022-10-26T12:20:50;20.00;99.90
10419;DHT22;5256;48.728;9.140;2022-10-26T12:23:17;20.10;99.90
10419;DHT22;5256;48.728;9.140;2022-10-26T12:25:43;20.10;99.90
10419;DHT22;5256;48.728;9.140;2022-10-26T12:34:03;20.30;99.90
10419;DHT22;5256;48.728;9.140;2022-10-26T12:39:33;20.50;99.90
10419;DHT22;5256;48.728;9.140;2022-10-26T12:47:03;20.50;99.90
10419;DHT22;5256;48.728;9.140;2022-10-26T13:00:27;21.10;99.90
10419;DHT22;5256;48.728;9.140;2022-10-26T13:03:14;21.00;99.90
10419;DHT22;5256;48.728;9.140;2022-10-26T13:06:01;21.10;99.90
10419;DHT22;5256;48.728;9.140;2022-10-26T13:08:52;21.20;99.90
10419;DHT22;5256;48.728;9.140;2022-10-26T13:11:34;21.20;99.90
10419;DHT22;5256;48.728;9.140;2022-10-26T13:14:06;21.10;99.90
10419;DHT22;5256;48.728;9.140;2022-10-26T13:16:33;20.90;99.90
10419;DHT22;5256;48.728;9.140;2022-10-26T13:18:59;20.90;99.90
10419;DHT22;5256;48.728;9.140;2022-10-26T13:21:26;21.00;99.90
10419;DHT22;5256;48.728;9.140;2022-10-26T13:26:19;21.00;99.90
10419;DHT22;5256;48.728;9.140;2022-10-26T13:28:51;20.90;99.90
10419;DHT22;5256;48.728;9.140;2022-10-26T13:34:16;20.80;99.90
10419;DHT22;5256;48.728;9.140;2022-10-26T13:39:43;20.80;99.90
10419;DHT22;5256;48.728;9.140;2022-10-26T13:42:18;20.80;99.90
10419;DHT22;5256;48.728;9.140;2022-10-26T13:45:02;20.80;99.90
10419;DHT22;5256;48.728;9.140;2022-10-26T13:47:37;20.90;99.90
10419;DHT22;5256;48.728;9.140;2022-10-26T13:50:10;20.90;99.90
10419;DHT22;5256;48.728;9.140;2022-10-26T13:52:44;20.90;99.90
10419;DHT22;5256;48.728;9.140;2022-10-26T13:55:27;20.90;99.90
10419;DHT22;5256;48.728;9.140;2022-10-26T14:03:27;20.90;99.90
10419;DHT22;5256;48.728;9.140;2022-10-26T14:05:53;20.90;99.90
10419;DHT22;5256;48.728;9.140;2022-10-26T14:08:20;20.80;99.90
10419;DHT22;5256;48.728;9.140;2022-10-26T14:10:51;20.90;99.90
10419;DHT22;5256;48.728;9.140;2022-10-26T14:13:21;20.90;99.90
10419;DHT22;5256;48.728;9.140;2022-10-26T14:15:47;20.80;99.90
10419;DHT22;5256;48.728;9.140;2022-10-26T14:18:33;20.80;99.90
10419;DHT22;5256;48.728;9.140;2022-10-26T14:21:06;20.70;99.90
10419;DHT22;5256;48.728;9.140;2022-10-26T14:23:44;20.70;99.90
10419;DHT22;5256;48.728;9.140;2022-10-26T14:26:18;20.60;99.90
10419;DHT22;5256;48.728;9.140;2022-10-26T14:28:48;20.60;99.90
10419;DHT22;5256;48.728;9.140;2022-10-26T14:31:22;20.60;99.90
10419;DHT22;5256;48.728;9.140;2022-10-26T14:33:48;20.50;99.90
10419;DHT22;5256;48.728;9.140;2022-10-26T14:36:14;20.50;99.90
10419;DHT22;5256;48.728;9.140;2022-10-26T14:38:46;20.30;99.90
10419;DHT22;5256;48.728;9.140;2022-10-26T14:41:16;20.20;99.90
10419;DHT22;5256;48.728;9.140;2022-10-26T14:43:42;20.20;99.90
10419;DHT22;5256;48.728;9.140;2022-10-26T14:46:16;20.20;99.90
10419;DHT22;5256;48.728;9.140;2022-10-26T14:48:54;20.10;99.90
10419;DHT22;5256;48.728;9.140;2022-10-26T14:51:25;20.00;99.90
10419;DHT22;5256;48.728;9.140;2022-10-26T14:54:01;20.00;99.90
10419;DHT22;5256;48.728;9.140;2022-10-26T14:56:39;20.00;99.90
10419;DHT22;5256;48.728;9.140;2022-10-26T14:59:27;20.00;99.90
10419;DHT22;5256;48.728;9.140;2022-10-26T15:02:17;20.00;99.90
10419;DHT22;5256;48.728;9.140;2022-10-26T15:05:02;20.10;99.90
10419;DHT22;5256;48.728;9.140;2022-10-26T15:07:36;20.10;99.90
10419;DHT22;5256;48.728;9.140;2022-10-26T15:10:02;20.10;99.90
10419;DHT22;5256;48.728;9.140;2022-10-26T15:14:59;20.10;99.90
10419;DHT22;5256;48.728;9.140;2022-10-26T15:17:36;20.00;99.90
10419;DHT22;5256;48.728;9.140;2022-10-26T15:20:06;19.90;99.90
10419;DHT22;5256;48.728;9.140;2022-10-26T15:22:32;19.80;99.90
10419;DHT22;5256;48.728;9.140;2022-10-26T15:25:02;19.70;99.90
10419;DHT22;5256;48.728;9.140;2022-10-26T15:27:29;19.70;99.90
10419;DHT22;5256;48.728;9.140;2022-10-26T15:32:42;19.50;99.90
10419;DHT22;5256;48.728;9.140;2022-10-26T15:35:12;19.40;99.90
10419;DHT22;5256;48.728;9.140;2022-10-26T15:37:38;19.20;99.90
10419;DHT22;5256;48.728;9.140;2022-10-26T15:40:05;18.90;99.90
10419;DHT22;5256;48.728;9.140;2022-10-26T15:42:31;18.80;99.90
10419;DHT22;5256;48.728;9.140;2022-10-26T15:44:58;18.70;99.90
10419;DHT22;5256;48.728;9.140;2022-10-26T15:47:28;18.40;99.90
10419;DHT22;5256;48.728;9.140;2022-10-26T15:49:55;18.20;99.90
10419;DHT22;5256;48.728;9.140;2022-10-26T15:52:20;18.10;99.90
10419;DHT22;5256;48.728;9.140;2022-10-26T15:54:46;18.00;99.90
10419;DHT22;5256;48.728;9.140;2022-10-26T15:57:13;17.80;99.90
10419;DHT22;5256;48.728;9.140;2022-10-26T15:59:39;17.60;99.90
10419;DHT22;5256;48.728;9.140;2022-10-26T16:02:12;17.40;99.90
10419;DHT22;5256;48.728;9.140;2022-10-26T16:04:38;17.20;99.90
10419;DHT22;5256;48.728;9.140;2022-10-26T16:07:04;17.00;99.90
10419;DHT22;5256;48.728;9.140;2022-10-26T16:09:30;16.80;99.90
10419;DHT22;5256;48.728;9.140;2022-10-26T16:11:55;16.60;99.90
10419;DHT22;5256;48.728;9.140;2022-10-26T16:14:21;16.50;99.90
10419;DHT22;5256;48.728;9.140;2022-10-26T16:16:46;16.40;99.90
10419;DHT22;5256;48.728;9.140;2022-10-26T16:19:12;16.20;99.90
10419;DHT22;5256;48.728;9.140;2022-10-26T16:21:38;16.10;99.90
10419;DHT22;5256;48.728;9.140;2022-10-26T16:24:04;16.00;99.90
10419;DHT22;5256;48.728;9.140;2022-10-26T16:26:29;15.90;99.90
10419;DHT22;5256;48.728;9.140;2022-10-26T16:28:55;15.80;99.90
10419;DHT22;5256;48.728;9.140;2022-10-26T16:31:21;15.70;99.90
10419;DHT22;5256;48.728;9.140;2022-10-26T16:33:47;15.50;99.90
10419;DHT22;5256;48.728;9.140;2022-10-26T16:36:12;15.40;99.90
10419;DHT22;5256;48.728;9.140;2022-10-26T16:38:39;15.30;99.90
10419;DHT22;5256;48.728;9.140;2022-10-26T16:41:12;15.10;99.90
10419;DHT22;5256;48.728;9.140;2022-10-26T16:43:40;15.00;99.90
10419;DHT22;5256;48.728;9.140;2022-10-26T16:46:11;14.90;99.90
10419;DHT22;5256;48.728;9.140;2022-10-26T16:48:39;14.70;99.90
10419;DHT22;5256;48.728;9.140;2022-10-26T16:51:06;14.60;99.90
10419;DHT22;5256;48.728;9.140;2022-10-26T16:53:32;14.50;99.90
10419;DHT22;5256;48.728;9.140;2022-10-26T16:56:06;14.40;99.90
10419;DHT22;5256;48.728;9.140;2022-10-26T16:58:33;14.50;99.90
10419;DHT22;5256;48.728;9.140;2022-10-26T17:00:59;14.60;99.90
10419;DHT22;5256;48.728;9.140;2022-10-26T17:03:24;14.80;99.90
10419;DHT22;5256;48.728;9.140;2022-10-26T17:06:05;14.90;99.90
10419;DHT22;5256;48.728;9.140;2022-10-26T17:08:32;14.90;99.90
10419;DHT22;5256;48.728;9.140;2022-10-26T17:11:06;14.90;99.90
10419;DHT22;5256;48.728;9.140;2022-10-26T17:13:36;14.90;99.90
10419;DHT22;5256;48.728;9.140;2022-10-26T17:16:04;14.70;99.90
10419;DHT22;5256;48.728;9.140;2022-10-26T17:18:30;14.60;99.90
10419;DHT22;5256;48.728;9.140;2022-10-26T17:20:55;14.40;99.90
10419;DHT22;5256;48.728;9.140;2022-10-26T17:23:21;14.30;99.90
10419;DHT22;5256;48.728;9.140;2022-10-26T17:25:46;14.20;99.90
10419;DHT22;5256;48.728;9.140;2022-10-26T17:28:12;14.30;99.90
10419;DHT22;5256;48.728;9.140;2022-10-26T17:30:38;14.50;99.90
10419;DHT22;5256;48.728;9.140;2022-10-26T17:33:04;14.50;99.90
10419;DHT22;5256;48.728;9.140;2022-10-26T17:35:34;14.50;99.90
10419;DHT22;5256;48.728;9.140;2022-10-26T17:38:00;14.40;99.90
10419;DHT22;5256;48.728;9.140;2022-10-26T17:40:26;14.30;99.90
10419;DHT22;5256;48.728;9.140;2022-10-26T17:42:52;14.30;99.90
10419;DHT22;5256;48.728;9.140;2022-10-26T17:45:20;14.20;99.90
10419;DHT22;5256;48.728;9.140;2022-10-26T17:47:46;14.20;99.90